Hurlburt Field, FL

4:22 PM CDT on July 24, 2016 (GMT -0500)
Hurlburt | | Change Station

Elev 39 ft 30.43 °N, 86.69 °W | Updated 24 minutes ago

Partly Cloudy
Partly Cloudy
87 °F
Feels Like 93 °F
N
6
Wind Variable Wind from Variable

Today
High -- | Low -- °F
--% Chance of Precip.
Yesterday
High -- | Low -- °F
Precip. -- in
Pressure 29.97 in
Visibility 10.0 miles
Clouds Few 20000 ft
Heat Index 93 °F
Dew Point 72 °F
Humidity 62%
Rainfall 0.05 in
Snow Depth Not available.
6:00 AM 7:45 PM
Waning Gibbous, 73% visible
METAR KHRT 242058Z VRB05KT 10SM FEW200 30/22 A2996 RMK AO2A LTG DSNT N AND E-SE SLP147 60000 T03040224 56009
Pressure 29.97 in
Visibility 10.0 miles
Clouds Few 20000 ft
Heat Index 93 °F
Dew Point 72 °F
Humidity 62%
Rainfall 0.05 in
Snow Depth Not available.
6:00 AM 7:45 PM
Waning Gibbous, 73% visible
METAR KHRT 242058Z VRB05KT 10SM FEW200 30/22 A2996 RMK AO2A LTG DSNT N AND E-SE SLP147 60000 T03040224 56009

10-Day Weather Forecast

Almanac

Astronomy

Jul. 24, 2016 Rise Set
Actual Time
Civil Twilight
Nautical Twilight
Astronomical Twilight
Moon
Length of Visible Light
Length of Day
Tomorrow will be .
, % of the Moon is Illuminated

Today's Extremes

State Highs State Lows

Community

WunderPhotos

Upload Photos

1,927,191 photos uploaded!

WunderBlog® & News

Nearby

Air Quality

  Air Quality AQ Index Pollutant
Not available.

Snow Depth

Station Depth Elevation

Earthquake Activity

City Distance Mag. Time & Date
Minimum magnitude displayed is 2.5.

Coastal Water Temperatures

Place Temperature

Stations

Nearby Weather Stations

Station Location Temp. Windchill Dew Point Humidity Wind Precip. Elev Updated Type
                   

Watches & Warnings

There are currently no watches in effect.